Airfield :
LOGIN :

Register | Disclaimer

   EN    FR    IT 

 










Legend :    VFR   Marginal VFR   IFR   Intensive IFR   Very Intensive IFR
Visi :
Ceiling :
>= 8 km
>= 3000ft
5 to 8 km
1000 to 3000 ft
1500m to 5 km
500 to 1000 ft
800 to 1500m
200 to 500 ft
< 800m
< 200 ft
Symbols :   Thunderstorms  Fog  Heavy snow  Heavy precipitations  Wind > 20 kt
SIGMETs :     Misc.  Thunderstorms  Icing  Turbulence  Mountain Waves  Volcanic Ashes







- Airport Elevation : 755 ft
- IATA code : KSC


LZKZ - Kosice

CURRENT METAR :
  • 181600Z 34007KT CAVOK 28/17 Q1018 NOSIG

EXPIRED METARs :
  • 181530Z 01008KT CAVOK 29/14 Q1018 NOSIG
  • 181500Z 01006KT 9999 FEW035CB SCT100 28/16 Q1018 NOSIG
  • 181430Z 04005KT 360V060 9999 FEW030TCU SCT080 28/15 Q1018 NOSIG
  • 181400Z 33012KT 9999 FEW029TCU SCT080 27/15 Q1018 NOSIG
  • 181330Z 29005KT 260V340 9999 FEW035TCU SCT090 30/14 Q1018 TEMPO TSRA

TAF TAF LZKZ
Valid from the 18 at 12:00 until the 19 at 12:00 UTC


181100Z 1812/1912 04004KT CAVOK
PROB30
TEMPO 1812/1816 9999 FEW050CB SCT060
BECMG 1816/1818 36012KT
No reported NOTAMs for that airfield.



MET'MAP, your aeronautical weather chart ! - Copyright ORBIFLY December 2007 - Disclaimer

ORBIFLY MET'MAP TEAM :

Programming & Development : Alexandra Zaïnal
Concept & Development : Baudouin d'Aumeries
Co-Development & Prog : Marc-Olivier Méhu
Technical & hardware support : Manuel Goepfert

Contact : metmap@orbifly.com




SOURCES & CREDITS :

   NOAA